createdAt,value
2023-02-12T00:00:13.346Z,91.68
2023-02-12T00:02:39.880Z,92.27
2023-02-12T00:05:06.579Z,92.30
2023-02-12T00:07:33.020Z,91.62
2023-02-12T00:09:59.504Z,91.71
2023-02-12T00:12:26.054Z,91.27
2023-02-12T00:14:52.520Z,91.37
2023-02-12T00:17:19.171Z,91.38
2023-02-12T00:19:47.559Z,90.86
2023-02-12T00:22:14.078Z,90.70
2023-02-12T00:24:40.552Z,90.56
2023-02-12T00:27:07.032Z,90.30
2023-02-12T00:29:33.605Z,89.87
2023-02-12T00:32:00.162Z,89.13
2023-02-12T00:34:26.670Z,89.09
2023-02-12T00:36:53.126Z,89.15
2023-02-12T00:39:19.710Z,88.15
2023-02-12T00:41:46.228Z,88.57
2023-02-12T00:44:12.739Z,88.68
2023-02-12T00:46:39.520Z,88.75
2023-02-12T00:49:06.021Z,88.10
2023-02-12T00:51:32.454Z,88.65
2023-02-12T00:53:58.906Z,88.80
2023-02-12T00:56:25.392Z,87.79
2023-02-12T00:58:51.883Z,87.51
2023-02-12T01:01:18.794Z,87.83
2023-02-12T01:03:45.389Z,87.65
2023-02-12T01:06:11.909Z,87.28
2023-02-12T01:08:38.495Z,86.87
2023-02-12T01:11:05.793Z,87.26
2023-02-12T01:13:33.674Z,87.31
2023-02-12T01:16:06.869Z,86.71
2023-02-12T01:18:33.434Z,86.81
2023-02-12T01:21:00.027Z,86.48
2023-02-12T01:23:26.557Z,86.54
2023-02-12T01:25:53.478Z,87.09
2023-02-12T01:28:20.289Z,86.19
2023-02-12T01:30:47.310Z,86.75
2023-02-12T01:33:13.842Z,86.48
2023-02-12T01:35:40.307Z,86.13
2023-02-12T01:38:06.888Z,86.31
2023-02-12T01:40:33.401Z,86.44
2023-02-12T01:43:03.535Z,86.80
2023-02-12T01:45:48.330Z,86.13
2023-02-12T01:48:17.564Z,86.51
2023-02-12T01:50:45.664Z,85.89
2023-02-12T01:53:19.825Z,86.15
2023-02-12T01:55:48.798Z,85.02
2023-02-12T01:58:15.677Z,84.38
2023-02-12T02:00:42.230Z,85.57
2023-02-12T02:03:08.784Z,85.25
2023-02-12T02:05:43.067Z,85.01
2023-02-12T02:08:10.819Z,85.41
2023-02-12T02:10:37.258Z,85.79
2023-02-12T02:13:22.482Z,83.84
2023-02-12T02:15:51.743Z,84.11
2023-02-12T02:18:35.306Z,84.03
2023-02-12T02:21:27.312Z,84.37
2023-02-12T02:23:53.728Z,83.88
2023-02-12T02:26:41.355Z,84.26
2023-02-12T02:29:45.800Z,84.28
2023-02-12T02:32:21.894Z,84.34
2023-02-12T02:34:57.126Z,84.81
2023-02-12T02:37:46.122Z,85.37
2023-02-12T02:40:26.998Z,85.48
2023-02-12T02:43:00.836Z,84.87
2023-02-12T02:45:40.971Z,83.75
2023-02-12T02:48:14.493Z,83.66
2023-02-12T02:50:44.901Z,83.09
2023-02-12T02:53:20.091Z,83.13
2023-02-12T02:55:52.257Z,82.35
2023-02-12T02:58:27.212Z,83.15
2023-02-12T03:01:04.262Z,83.23
2023-02-12T03:03:34.609Z,83.10
2023-02-12T03:06:07.655Z,83.12
2023-02-12T03:08:37.947Z,82.46
2023-02-12T03:11:14.716Z,82.67
2023-02-12T03:13:51.170Z,82.46
2023-02-12T03:16:23.852Z,81.67
2023-02-12T03:19:02.968Z,81.66
2023-02-12T03:21:34.244Z,81.54
2023-02-12T03:24:26.799Z,82.09
2023-02-12T03:27:03.539Z,81.12
2023-02-12T03:29:30.190Z,81.29
2023-02-12T03:32:08.709Z,81.78
2023-02-12T03:34:49.383Z,81.95
2023-02-12T03:37:38.747Z,81.95
2023-02-12T03:40:17.738Z,80.64
2023-02-12T03:43:00.736Z,80.81
2023-02-12T03:45:33.143Z,80.90
2023-02-12T03:48:02.653Z,81.04
2023-02-12T03:50:32.088Z,80.96
2023-02-12T03:52:58.620Z,80.21
2023-02-12T03:55:25.315Z,80.51
2023-02-12T03:57:59.443Z,80.78
2023-02-12T04:00:26.145Z,80.79
2023-02-12T04:02:53.909Z,80.76
2023-02-12T04:05:28.162Z,81.25
2023-02-12T04:07:56.373Z,81.05
2023-02-12T04:10:30.415Z,81.20
2023-02-12T04:13:33.519Z,81.64
2023-02-12T04:16:16.276Z,81.72
2023-02-12T04:18:45.139Z,81.93
2023-02-12T04:21:23.379Z,81.73
2023-02-12T04:24:11.025Z,80.47
2023-02-12T04:26:44.425Z,81.36
2023-02-12T04:29:33.333Z,81.03
2023-02-12T04:32:12.815Z,81.31
2023-02-12T04:34:54.479Z,81.44
2023-02-12T04:37:26.677Z,81.60
2023-02-12T04:39:53.551Z,80.63
2023-02-12T04:42:20.515Z,81.20
2023-02-12T04:44:47.003Z,81.07
2023-02-12T04:47:15.226Z,81.07
2023-02-12T04:49:41.870Z,80.81
2023-02-12T04:52:08.868Z,81.12
2023-02-12T04:54:35.777Z,80.86
2023-02-12T04:57:03.315Z,80.76
2023-02-12T04:59:29.754Z,80.86
2023-02-12T05:01:58.896Z,80.38
2023-02-12T05:04:25.374Z,79.93
2023-02-12T05:06:51.921Z,80.55
2023-02-12T05:09:20.063Z,80.47
2023-02-12T05:11:46.909Z,80.79
2023-02-12T05:14:13.399Z,80.98
2023-02-12T05:16:39.990Z,80.59
2023-02-12T05:19:06.432Z,81.04
2023-02-12T05:21:32.917Z,81.62
2023-02-12T05:24:01.506Z,81.64
2023-02-12T05:26:28.017Z,81.45
2023-02-12T05:28:54.478Z,81.30
2023-02-12T05:31:22.194Z,81.60
2023-02-12T05:33:49.833Z,81.57
2023-02-12T05:36:21.293Z,81.38
2023-02-12T05:38:48.696Z,81.40
2023-02-12T05:41:23.619Z,81.57
2023-02-12T05:43:50.923Z,81.08
2023-02-12T05:46:18.764Z,80.71
2023-02-12T05:48:45.272Z,80.29
2023-02-12T05:51:16.916Z,80.32
2023-02-12T05:53:43.646Z,81.06
2023-02-12T05:56:11.701Z,80.94
2023-02-12T05:58:38.615Z,81.24
2023-02-12T06:01:10.549Z,81.64
2023-02-12T06:03:37.056Z,81.61
2023-02-12T06:06:03.801Z,81.49
2023-02-12T06:08:30.364Z,81.50
2023-02-12T06:11:08.976Z,81.19
2023-02-12T06:13:35.488Z,81.55
2023-02-12T06:16:02.605Z,81.99
2023-02-12T06:18:29.488Z,82.30
2023-02-12T06:20:57.083Z,81.98
2023-02-12T06:23:25.155Z,81.74
2023-02-12T06:25:56.680Z,81.65
2023-02-12T06:28:23.725Z,81.28
2023-02-12T06:30:50.627Z,80.62
2023-02-12T06:33:17.395Z,79.87
2023-02-12T06:35:43.958Z,79.91
2023-02-12T06:38:10.723Z,80.27
2023-02-12T06:40:37.264Z,80.42
2023-02-12T06:43:03.857Z,80.45
2023-02-12T06:45:30.509Z,80.04
2023-02-12T06:48:00.714Z,80.18
2023-02-12T06:50:27.250Z,79.49
2023-02-12T06:52:53.745Z,78.66
2023-02-12T06:55:20.335Z,79.23
2023-02-12T06:57:46.850Z,79.27
2023-02-12T07:00:13.930Z,79.71
2023-02-12T07:02:40.551Z,79.42
2023-02-12T07:05:07.124Z,78.80
2023-02-12T07:07:33.668Z,78.15
2023-02-12T07:10:00.294Z,77.83
2023-02-12T07:12:26.798Z,77.33
2023-02-12T07:14:53.302Z,76.05
2023-02-12T07:17:19.905Z,75.29
2023-02-12T07:19:46.422Z,74.09
2023-02-12T07:22:12.966Z,74.63
2023-02-12T07:24:39.505Z,74.02
2023-02-12T07:27:05.991Z,73.65
2023-02-12T07:29:32.713Z,73.39
2023-02-12T07:31:59.389Z,73.05
2023-02-12T07:34:25.941Z,73.73
2023-02-12T07:36:52.480Z,74.19
2023-02-12T07:39:19.044Z,74.24
2023-02-12T07:41:45.559Z,72.87
2023-02-12T07:44:12.805Z,72.67
2023-02-12T07:46:49.119Z,72.68
2023-02-12T07:49:18.275Z,73.25
2023-02-12T07:51:45.032Z,73.57
2023-02-12T07:54:12.524Z,73.82
2023-02-12T07:56:41.143Z,73.32
2023-02-12T07:59:11.185Z,72.49
2023-02-12T08:01:43.365Z,73.13
2023-02-12T08:04:14.149Z,74.20
2023-02-12T08:06:42.963Z,72.83
2023-02-12T08:09:11.662Z,72.49
2023-02-12T08:11:39.275Z,72.80
2023-02-12T08:14:05.990Z,72.78
2023-02-12T08:16:36.678Z,71.84
2023-02-12T08:19:16.603Z,73.09
2023-02-12T08:21:44.558Z,70.60
2023-02-12T08:24:11.998Z,68.12
2023-02-12T08:26:39.660Z,61.86
2023-02-12T08:29:08.312Z,52.65
2023-02-12T08:31:38.078Z,47.00
2023-02-12T08:34:05.499Z,40.17
2023-02-12T08:36:41.202Z,34.65
2023-02-12T08:39:08.217Z,30.97
2023-02-12T08:41:35.169Z,28.66
2023-02-12T08:44:03.557Z,28.25
2023-02-12T08:46:33.184Z,27.88
2023-02-12T08:49:02.368Z,26.07
2023-02-12T08:51:31.964Z,24.54
2023-02-12T08:54:00.655Z,26.75
2023-02-12T08:56:30.001Z,25.13
2023-02-12T08:59:00.190Z,21.94
2023-02-12T09:01:28.749Z,21.12
2023-02-12T09:03:55.970Z,20.16
2023-02-12T09:06:24.297Z,23.96
2023-02-12T09:08:51.968Z,23.31
2023-02-12T09:11:30.618Z,23.87
2023-02-12T09:13:59.942Z,23.95
2023-02-12T09:16:30.360Z,22.13
2023-02-12T09:18:58.262Z,21.19
2023-02-12T09:21:25.192Z,20.81
2023-02-12T09:23:53.097Z,23.34
2023-02-12T09:26:22.481Z,23.64
2023-02-12T09:28:50.052Z,23.34
2023-02-12T09:31:21.003Z,29.33
2023-02-12T09:33:51.208Z,32.13
2023-02-12T09:36:19.139Z,33.13
2023-02-12T09:38:45.828Z,35.92
2023-02-12T09:41:29.423Z,40.18
2023-02-12T09:44:14.876Z,42.18
2023-02-12T09:46:48.029Z,43.77
2023-02-12T09:49:33.690Z,43.41
2023-02-12T09:52:00.741Z,45.46
2023-02-12T09:54:34.611Z,47.38
2023-02-12T09:57:02.184Z,48.01
2023-02-12T09:59:41.906Z,49.90
2023-02-12T10:02:15.984Z,50.26
2023-02-12T10:04:58.721Z,50.52
2023-02-12T10:08:04.527Z,49.64
2023-02-12T10:10:44.266Z,49.95
2023-02-12T10:13:16.564Z,49.38
2023-02-12T10:16:10.579Z,52.34
2023-02-12T10:18:53.320Z,51.62
2023-02-12T10:21:50.986Z,50.72
2023-02-12T10:24:27.180Z,53.28
2023-02-12T10:26:57.965Z,51.95
2023-02-12T10:29:27.590Z,53.47
2023-02-12T10:32:00.855Z,56.00
2023-02-12T10:34:36.180Z,57.35
2023-02-12T10:37:29.911Z,57.79
2023-02-12T10:40:30.018Z,61.90
2023-02-12T10:42:57.965Z,64.90
2023-02-12T10:45:27.539Z,66.07
2023-02-12T10:48:13.705Z,67.07
2023-02-12T10:51:07.729Z,67.79
2023-02-12T10:53:36.807Z,65.70
2023-02-12T10:56:17.362Z,63.97
2023-02-12T10:58:50.423Z,62.34
2023-02-12T11:01:30.844Z,61.90
2023-02-12T11:04:00.025Z,63.38
2023-02-12T11:06:28.996Z,62.58
2023-02-12T11:08:57.060Z,63.91
2023-02-12T11:11:26.270Z,65.16
2023-02-12T11:14:00.672Z,64.35
2023-02-12T11:16:40.611Z,66.21
2023-02-12T11:19:09.092Z,67.47
2023-02-12T11:21:36.363Z,67.62
2023-02-12T11:24:21.640Z,66.94
2023-02-12T11:26:48.364Z,69.15
2023-02-12T11:29:33.779Z,67.74
2023-02-12T11:32:05.614Z,67.21
2023-02-12T11:34:32.315Z,68.73
2023-02-12T11:36:59.132Z,69.22
2023-02-12T11:39:39.176Z,70.38
2023-02-12T11:42:14.832Z,70.02
2023-02-12T11:44:44.129Z,68.28
2023-02-12T11:47:22.331Z,66.97
2023-02-12T11:49:52.127Z,67.92
2023-02-12T11:52:23.630Z,69.13
2023-02-12T11:54:52.260Z,70.15
2023-02-12T11:57:37.220Z,70.70
2023-02-12T12:00:12.829Z,70.64
2023-02-12T12:02:44.986Z,71.63
2023-02-12T12:05:20.152Z,71.57
2023-02-12T12:08:08.031Z,70.28
2023-02-12T12:10:56.195Z,69.01
2023-02-12T12:13:30.576Z,65.85
2023-02-12T12:16:27.444Z,65.16
2023-02-12T12:19:24.291Z,64.92
2023-02-12T12:22:06.117Z,65.75
2023-02-12T12:24:35.693Z,64.53
2023-02-12T12:27:45.491Z,65.60
2023-02-12T12:30:36.996Z,66.69
2023-02-12T12:33:14.438Z,67.01
2023-02-12T12:36:13.403Z,65.82
2023-02-12T12:39:08.373Z,65.97
2023-02-12T12:42:12.635Z,67.88
2023-02-12T12:45:26.788Z,68.05
2023-02-12T12:48:18.144Z,68.84
2023-02-12T12:50:52.039Z,69.45
2023-02-12T12:53:31.964Z,69.07
2023-02-12T12:56:19.964Z,68.25
2023-02-12T12:59:10.389Z,69.16
2023-02-12T13:02:01.590Z,67.91
2023-02-12T13:04:46.071Z,67.55
2023-02-12T13:07:33.546Z,68.99
2023-02-12T13:10:41.031Z,69.05
2023-02-12T13:13:19.668Z,70.60
2023-02-12T13:15:51.122Z,71.51
2023-02-12T13:18:23.820Z,71.58
2023-02-12T13:21:05.428Z,72.01
2023-02-12T13:23:31.926Z,72.75
2023-02-12T13:26:04.236Z,71.93
2023-02-12T13:28:44.821Z,71.26
2023-02-12T13:34:05.378Z,72.77
2023-02-12T13:36:33.338Z,73.95
2023-02-12T13:39:18.110Z,74.42
2023-02-12T13:41:52.701Z,72.78
2023-02-12T13:44:51.755Z,74.45
2023-02-12T13:47:39.451Z,75.07
2023-02-12T13:50:18.396Z,74.91
2023-02-12T13:52:52.827Z,75.37
2023-02-12T13:55:39.744Z,75.56
2023-02-12T13:58:40.087Z,74.93
2023-02-12T14:01:10.313Z,74.56
2023-02-12T14:03:37.745Z,74.93
2023-02-12T14:06:15.949Z,75.69
2023-02-12T14:08:51.688Z,76.23
2023-02-12T14:11:20.801Z,76.01
2023-02-12T14:14:03.118Z,76.58
2023-02-12T14:16:29.578Z,78.21
2023-02-12T14:19:33.667Z,78.76
2023-02-12T14:22:11.185Z,78.33
2023-02-12T14:24:37.832Z,79.21
2023-02-12T14:27:20.875Z,79.18
2023-02-12T14:30:09.163Z,78.98
2023-02-12T14:32:45.262Z,79.22
2023-02-12T14:35:41.811Z,80.30
2023-02-12T14:38:20.386Z,81.00
2023-02-12T14:40:48.446Z,81.87
2023-02-12T14:43:26.785Z,82.27
2023-02-12T14:45:55.256Z,82.15
2023-02-12T14:49:04.941Z,82.43
2023-02-12T14:51:51.300Z,81.48
2023-02-12T14:54:30.838Z,82.70
2023-02-12T14:57:05.892Z,83.01
2023-02-12T14:59:36.470Z,84.69
2023-02-12T15:02:04.230Z,84.55
2023-02-12T15:04:34.829Z,85.68
2023-02-12T15:07:08.327Z,85.83
2023-02-12T15:09:40.153Z,86.48
2023-02-12T15:12:16.687Z,85.62
2023-02-12T15:14:47.039Z,86.63
2023-02-12T15:17:22.553Z,87.01
2023-02-12T15:20:08.515Z,88.17
2023-02-12T15:22:38.119Z,88.72
2023-02-12T15:25:26.024Z,89.77
2023-02-12T15:28:04.717Z,90.20
2023-02-12T15:30:36.395Z,90.79
2023-02-12T15:33:05.627Z,91.79
2023-02-12T15:35:34.382Z,91.85
2023-02-12T15:38:01.889Z,92.04
2023-02-12T15:40:30.353Z,92.56
2023-02-12T15:42:59.960Z,93.19
2023-02-12T15:45:28.622Z,93.77
2023-02-12T15:48:01.083Z,94.27
2023-02-12T15:50:28.709Z,94.56
2023-02-12T15:52:57.257Z,95.14
2023-02-12T15:55:27.367Z,95.48
2023-02-12T15:57:59.996Z,95.88
2023-02-12T16:00:40.637Z,96.32
2023-02-12T16:03:21.293Z,97.17
2023-02-12T16:05:49.690Z,97.71
2023-02-12T16:08:17.653Z,98.41
2023-02-12T16:10:49.401Z,99.43
2023-02-12T16:13:24.782Z,99.35
2023-02-12T16:16:13.027Z,99.86
2023-02-12T16:18:40.888Z,100.00
2023-02-12T16:21:20.990Z,100.00
2023-02-12T16:23:50.741Z,100.00
2023-02-12T16:26:24.358Z,100.00
2023-02-12T16:28:54.094Z,100.00
2023-02-12T16:31:22.206Z,100.00
2023-02-12T16:33:53.376Z,100.00
2023-02-12T16:36:19.895Z,100.00
2023-02-12T16:38:48.623Z,100.00
2023-02-12T16:41:26.984Z,100.00
2023-02-12T16:43:59.564Z,100.00
2023-02-12T16:46:27.532Z,100.00
2023-02-12T16:48:57.047Z,100.00
2023-02-12T16:51:24.545Z,100.00
2023-02-12T16:53:54.108Z,100.00
2023-02-12T16:56:22.326Z,100.00
2023-02-12T16:58:57.036Z,100.00
2023-02-12T17:01:27.457Z,100.00
2023-02-12T17:03:54.921Z,100.00
2023-02-12T17:06:23.365Z,100.00
2023-02-12T17:08:50.056Z,100.00
2023-02-12T17:11:17.893Z,100.00
2023-02-12T17:13:46.453Z,100.00
2023-02-12T17:16:18.888Z,100.00
2023-02-12T17:18:55.357Z,100.00
2023-02-12T17:21:31.280Z,100.00
2023-02-12T17:23:58.106Z,100.00
2023-02-12T17:26:25.107Z,100.00
2023-02-12T17:28:51.717Z,100.00
2023-02-12T17:31:19.587Z,100.00
2023-02-12T17:33:46.586Z,100.00
2023-02-12T17:36:13.215Z,100.00
2023-02-12T17:38:39.795Z,100.00
2023-02-12T17:41:12.410Z,100.00
2023-02-12T17:43:38.961Z,100.00
2023-02-12T17:46:12.937Z,100.00
2023-02-12T17:48:40.658Z,100.00
2023-02-12T17:51:09.683Z,100.00
2023-02-12T17:53:36.169Z,100.00
2023-02-12T17:56:02.877Z,100.00
2023-02-12T17:58:29.589Z,100.00
2023-02-12T18:00:57.258Z,100.00
2023-02-12T18:03:23.995Z,100.00
2023-02-12T18:05:50.857Z,100.00
2023-02-12T18:08:17.420Z,100.00
2023-02-12T18:10:45.008Z,100.00
2023-02-12T18:13:13.761Z,100.00
2023-02-12T18:15:40.833Z,100.00
2023-02-12T18:18:07.423Z,100.00
2023-02-12T18:20:34.180Z,100.00
2023-02-12T18:23:00.976Z,100.00
2023-02-12T18:25:27.604Z,100.00
2023-02-12T18:27:54.200Z,100.00
2023-02-12T18:30:20.907Z,100.00
2023-02-12T18:32:47.572Z,100.00
2023-02-12T18:35:14.848Z,100.00
2023-02-12T18:37:43.247Z,100.00
2023-02-12T18:40:10.449Z,100.00
2023-02-12T18:42:36.916Z,100.00
2023-02-12T18:45:03.916Z,100.00
2023-02-12T18:47:30.367Z,100.00
2023-02-12T18:49:58.138Z,100.00
2023-02-12T18:52:24.972Z,100.00
2023-02-12T18:54:53.085Z,100.00
2023-02-12T18:57:19.884Z,100.00
2023-02-12T18:59:46.415Z,100.00
2023-02-12T19:02:13.951Z,100.00
2023-02-12T19:04:40.646Z,100.00
2023-02-12T19:07:07.167Z,100.00
2023-02-12T19:09:33.683Z,100.00
2023-02-12T19:12:00.300Z,100.00
2023-02-12T19:14:27.210Z,100.00
2023-02-12T19:16:53.939Z,100.00
2023-02-12T19:19:21.193Z,100.00
2023-02-12T19:21:47.742Z,100.00
2023-02-12T19:24:16.041Z,100.00
2023-02-12T19:26:44.332Z,100.00
2023-02-12T19:29:12.080Z,100.00
2023-02-12T19:31:41.111Z,100.00
2023-02-12T19:34:33.849Z,100.00
2023-02-12T19:37:00.383Z,100.00
2023-02-12T19:39:27.486Z,100.00
2023-02-12T19:41:56.506Z,100.00
2023-02-12T19:44:24.471Z,100.00
2023-02-12T19:46:51.769Z,100.00
2023-02-12T19:49:23.387Z,100.00
2023-02-12T19:51:50.424Z,100.00
2023-02-12T19:54:18.586Z,100.00
2023-02-12T19:56:45.518Z,100.00
2023-02-12T19:59:14.010Z,100.00
2023-02-12T20:01:41.150Z,100.00
2023-02-12T20:04:08.021Z,100.00
2023-02-12T20:06:36.370Z,100.00
2023-02-12T20:09:04.125Z,100.00
2023-02-12T20:11:32.209Z,100.00
2023-02-12T20:13:59.165Z,100.00
2023-02-12T20:16:31.191Z,100.00
2023-02-12T20:19:09.666Z,100.00
2023-02-12T20:21:36.285Z,100.00
2023-02-12T20:24:02.933Z,100.00
2023-02-12T20:26:31.277Z,100.00
2023-02-12T20:28:58.788Z,100.00
2023-02-12T20:31:28.097Z,100.00
2023-02-12T20:33:57.338Z,100.00
2023-02-12T20:36:25.146Z,100.00
2023-02-12T20:38:58.834Z,100.00
2023-02-12T20:41:26.611Z,100.00
2023-02-12T20:43:53.639Z,100.00
2023-02-12T20:46:21.902Z,100.00
2023-02-12T20:48:48.958Z,100.00
2023-02-12T20:51:17.989Z,100.00
2023-02-12T20:53:45.218Z,100.00
2023-02-12T20:56:14.587Z,100.00
2023-02-12T20:58:44.936Z,100.00
2023-02-12T21:01:23.959Z,100.00
2023-02-12T21:03:52.612Z,100.00
2023-02-12T21:06:20.444Z,100.00
2023-02-12T21:08:47.129Z,100.00
2023-02-12T21:11:20.667Z,100.00
2023-02-12T21:13:59.037Z,100.00
2023-02-12T21:16:32.907Z,100.00
2023-02-12T21:19:00.086Z,100.00
2023-02-12T21:21:29.703Z,100.00
2023-02-12T21:23:58.668Z,100.00
2023-02-12T21:26:28.159Z,100.00
2023-02-12T21:28:57.468Z,100.00
2023-02-12T21:31:28.147Z,100.00
2023-02-12T21:33:56.208Z,100.00
2023-02-12T21:36:34.223Z,100.00
2023-02-12T21:39:01.159Z,100.00
2023-02-12T21:41:34.488Z,100.00
2023-02-12T21:44:10.955Z,100.00
2023-02-12T21:46:37.811Z,100.00
2023-02-12T21:49:04.982Z,100.00
2023-02-12T21:51:37.124Z,100.00
2023-02-12T21:54:12.673Z,100.00
2023-02-12T21:56:40.955Z,100.00
2023-02-12T21:59:08.670Z,100.00
2023-02-12T22:01:41.735Z,100.00
2023-02-12T22:04:08.715Z,100.00
2023-02-12T22:06:46.422Z,100.00
2023-02-12T22:09:14.888Z,100.00
2023-02-12T22:11:41.740Z,100.00
2023-02-12T22:14:11.706Z,100.00
2023-02-12T22:16:38.341Z,100.00
2023-02-12T22:19:05.464Z,100.00
2023-02-12T22:21:37.364Z,100.00
2023-02-12T22:24:06.390Z,100.00
2023-02-12T22:26:33.450Z,100.00
2023-02-12T22:29:05.656Z,100.00
2023-02-12T22:31:34.473Z,100.00
2023-02-12T22:34:04.531Z,100.00
2023-02-12T22:36:31.775Z,100.00
2023-02-12T22:38:59.929Z,100.00
2023-02-12T22:41:27.808Z,100.00
2023-02-12T22:43:55.290Z,100.00
2023-02-12T22:46:22.093Z,100.00
2023-02-12T22:48:48.559Z,100.00
2023-02-12T22:51:26.275Z,100.00
2023-02-12T22:53:53.815Z,100.00
2023-02-12T22:56:20.522Z,100.00
2023-02-12T22:58:47.859Z,100.00
2023-02-12T23:01:16.341Z,100.00
2023-02-12T23:03:42.893Z,100.00
2023-02-12T23:06:14.461Z,100.00
2023-02-12T23:08:41.003Z,100.00
2023-02-12T23:11:08.644Z,100.00
2023-02-12T23:13:36.163Z,100.00
2023-02-12T23:16:03.584Z,100.00
2023-02-12T23:18:30.031Z,100.00
2023-02-12T23:20:57.830Z,100.00
2023-02-12T23:23:24.746Z,100.00
2023-02-12T23:25:51.586Z,100.00
2023-02-12T23:28:18.172Z,100.00
2023-02-12T23:30:44.743Z,100.00
2023-02-12T23:33:11.623Z,100.00
2023-02-12T23:35:38.312Z,100.00
2023-02-12T23:38:05.403Z,100.00
2023-02-12T23:40:33.341Z,100.00
2023-02-12T23:43:00.248Z,100.00
2023-02-12T23:45:27.517Z,100.00
2023-02-12T23:47:54.481Z,100.00
2023-02-12T23:50:21.346Z,100.00
2023-02-12T23:52:47.812Z,100.00
2023-02-12T23:55:14.460Z,100.00
2023-02-12T23:57:40.979Z,100.00
